sensor_id;sensor_type;location;lat;lon;timestamp;pressure;altitude;pressure_sealevel;temperature;humidity
33859;BME280;20156;47.486;12.074;2023-04-21T00:01:55;92602.13;;;7.51;100.00
33859;BME280;20156;47.486;12.074;2023-04-21T00:04:20;92594.88;;;7.48;100.00
33859;BME280;20156;47.486;12.074;2023-04-21T00:06:46;92584.78;;;7.46;100.00
33859;BME280;20156;47.486;12.074;2023-04-21T00:09:11;92588.13;;;7.42;100.00
33859;BME280;20156;47.486;12.074;2023-04-21T00:11:37;92590.91;;;7.35;100.00
33859;BME280;20156;47.486;12.074;2023-04-21T00:14:02;92579.53;;;7.36;100.00
33859;BME280;20156;47.486;12.074;2023-04-21T00:16:27;92576.19;;;7.36;100.00
33859;BME280;20156;47.486;12.074;2023-04-21T00:18:53;92554.50;;;7.42;100.00
33859;BME280;20156;47.486;12.074;2023-04-21T00:21:18;92553.44;;;7.38;100.00
33859;BME280;20156;47.486;12.074;2023-04-21T00:23:44;92540.22;;;7.29;100.00
33859;BME280;20156;47.486;12.074;2023-04-21T00:26:11;92539.94;;;7.26;100.00
33859;BME280;20156;47.486;12.074;2023-04-21T00:28:37;92526.50;;;7.29;100.00
33859;BME280;20156;47.486;12.074;2023-04-21T00:31:02;92515.09;;;7.24;100.00
33859;BME280;20156;47.486;12.074;2023-04-21T00:33:28;92515.59;;;7.21;100.00
33859;BME280;20156;47.486;12.074;2023-04-21T00:35:53;92515.03;;;7.14;100.00
33859;BME280;20156;47.486;12.074;2023-04-21T00:38:18;92505.22;;;7.16;100.00
33859;BME280;20156;47.486;12.074;2023-04-21T00:40:44;92499.03;;;7.17;100.00
33859;BME280;20156;47.486;12.074;2023-04-21T00:43:09;92478.34;;;7.17;100.00
33859;BME280;20156;47.486;12.074;2023-04-21T00:45:35;92476.78;;;7.11;100.00
33859;BME280;20156;47.486;12.074;2023-04-21T00:48:00;92470.56;;;7.12;100.00
33859;BME280;20156;47.486;12.074;2023-04-21T00:50:26;92464.91;;;7.15;100.00
33859;BME280;20156;47.486;12.074;2023-04-21T00:52:52;92444.75;;;7.17;100.00
33859;BME280;20156;47.486;12.074;2023-04-21T00:55:17;92442.59;;;7.04;100.00
33859;BME280;20156;47.486;12.074;2023-04-21T00:57:43;92432.00;;;7.01;100.00
33859;BME280;20156;47.486;12.074;2023-04-21T01:00:09;92409.28;;;7.08;100.00
33859;BME280;20156;47.486;12.074;2023-04-21T01:02:35;92410.84;;;7.09;100.00
33859;BME280;20156;47.486;12.074;2023-04-21T01:05:06;92412.66;;;7.08;100.00
33859;BME280;20156;47.486;12.074;2023-04-21T01:07:33;92415.44;;;7.02;100.00
33859;BME280;20156;47.486;12.074;2023-04-21T01:09:58;92399.91;;;6.91;100.00
33859;BME280;20156;47.486;12.074;2023-04-21T01:12:24;92380.56;;;7.04;100.00
33859;BME280;20156;47.486;12.074;2023-04-21T01:14:49;92375.91;;;7.01;100.00
33859;BME280;20156;47.486;12.074;2023-04-21T01:17:15;92365.56;;;7.01;100.00
33859;BME280;20156;47.486;12.074;2023-04-21T01:19:43;92349.88;;;7.13;100.00
33859;BME280;20156;47.486;12.074;2023-04-21T01:22:10;92367.44;;;7.06;100.00
33859;BME280;20156;47.486;12.074;2023-04-21T01:24:44;92381.31;;;6.89;100.00
33859;BME280;20156;47.486;12.074;2023-04-21T01:27:16;92369.38;;;6.88;100.00
33859;BME280;20156;47.486;12.074;2023-04-21T01:29:47;92345.41;;;6.93;100.00
33859;BME280;20156;47.486;12.074;2023-04-21T01:32:17;92336.34;;;6.90;100.00
33859;BME280;20156;47.486;12.074;2023-04-21T01:34:43;92323.94;;;6.92;100.00
33859;BME280;20156;47.486;12.074;2023-04-21T01:37:11;92320.59;;;6.97;100.00
33859;BME280;20156;47.486;12.074;2023-04-21T01:39:41;92315.69;;;6.90;100.00
33859;BME280;20156;47.486;12.074;2023-04-21T01:42:07;92325.97;;;6.85;100.00
33859;BME280;20156;47.486;12.074;2023-04-21T01:44:33;92308.41;;;6.82;100.00
33859;BME280;20156;47.486;12.074;2023-04-21T01:46:59;92301.44;;;6.83;100.00
33859;BME280;20156;47.486;12.074;2023-04-21T01:49:25;92293.94;;;6.86;100.00
33859;BME280;20156;47.486;12.074;2023-04-21T01:51:51;92290.31;;;6.87;100.00
33859;BME280;20156;47.486;12.074;2023-04-21T01:54:16;92286.19;;;6.86;100.00
33859;BME280;20156;47.486;12.074;2023-04-21T01:56:41;92292.38;;;6.80;100.00
33859;BME280;20156;47.486;12.074;2023-04-21T01:59:07;92270.16;;;6.79;100.00
33859;BME280;20156;47.486;12.074;2023-04-21T02:01:32;92259.06;;;6.84;100.00
33859;BME280;20156;47.486;12.074;2023-04-21T02:04:00;92252.91;;;6.90;100.00
33859;BME280;20156;47.486;12.074;2023-04-21T02:06:25;92241.78;;;6.94;100.00
33859;BME280;20156;47.486;12.074;2023-04-21T02:08:50;92234.81;;;6.95;100.00
33859;BME280;20156;47.486;12.074;2023-04-21T02:11:16;92241.50;;;6.86;100.00
33859;BME280;20156;47.486;12.074;2023-04-21T02:13:41;92246.91;;;6.79;100.00
33859;BME280;20156;47.486;12.074;2023-04-21T02:16:06;92245.63;;;6.82;100.00
33859;BME280;20156;47.486;12.074;2023-04-21T02:18:32;92233.22;;;6.84;100.00
33859;BME280;20156;47.486;12.074;2023-04-21T02:20:59;92225.75;;;6.87;100.00
33859;BME280;20156;47.486;12.074;2023-04-21T02:23:25;92221.88;;;6.90;100.00
33859;BME280;20156;47.486;12.074;2023-04-21T02:25:50;92237.88;;;6.77;100.00
33859;BME280;20156;47.486;12.074;2023-04-21T02:28:15;92227.00;;;6.75;100.00
33859;BME280;20156;47.486;12.074;2023-04-21T02:30:41;92217.22;;;6.82;100.00
33859;BME280;20156;47.486;12.074;2023-04-21T02:33:06;92208.41;;;6.83;100.00
33859;BME280;20156;47.486;12.074;2023-04-21T02:35:31;92209.44;;;6.77;100.00
33859;BME280;20156;47.486;12.074;2023-04-21T02:37:58;92223.09;;;6.62;100.00
33859;BME280;20156;47.486;12.074;2023-04-21T02:40:23;92203.72;;;6.64;100.00
33859;BME280;20156;47.486;12.074;2023-04-21T02:42:48;92182.81;;;6.66;100.00
33859;BME280;20156;47.486;12.074;2023-04-21T02:45:14;92165.50;;;6.72;100.00
33859;BME280;20156;47.486;12.074;2023-04-21T02:47:39;92170.19;;;6.75;100.00
33859;BME280;20156;47.486;12.074;2023-04-21T02:50:05;92168.91;;;6.77;100.00
33859;BME280;20156;47.486;12.074;2023-04-21T02:52:35;92162.97;;;6.82;100.00
33859;BME280;20156;47.486;12.074;2023-04-21T02:55:01;92161.16;;;6.82;100.00
33859;BME280;20156;47.486;12.074;2023-04-21T02:57:27;92164.50;;;6.78;100.00
33859;BME280;20156;47.486;12.074;2023-04-21T02:59:52;92159.84;;;6.80;100.00
33859;BME280;20156;47.486;12.074;2023-04-21T03:02:18;92142.53;;;6.85;100.00
33859;BME280;20156;47.486;12.074;2023-04-21T03:04:43;92143.59;;;6.89;100.00
33859;BME280;20156;47.486;12.074;2023-04-21T03:07:12;92164.50;;;6.83;100.00
33859;BME280;20156;47.486;12.074;2023-04-21T03:09:38;92214.56;;;6.61;100.00
33859;BME280;20156;47.486;12.074;2023-04-21T03:12:04;92217.38;;;6.55;100.00
33859;BME280;20156;47.486;12.074;2023-04-21T03:14:29;92200.63;;;6.57;100.00
33859;BME280;20156;47.486;12.074;2023-04-21T03:16:54;92173.50;;;6.65;100.00
33859;BME280;20156;47.486;12.074;2023-04-21T03:19:20;92160.13;;;6.73;100.00
33859;BME280;20156;47.486;12.074;2023-04-21T03:21:45;92145.91;;;6.81;100.00
33859;BME280;20156;47.486;12.074;2023-04-21T03:24:11;92146.94;;;6.85;100.00
33859;BME280;20156;47.486;12.074;2023-04-21T03:26:38;92164.25;;;6.84;100.00
33859;BME280;20156;47.486;12.074;2023-04-21T03:29:04;92193.16;;;6.71;100.00
33859;BME280;20156;47.486;12.074;2023-04-21T03:31:30;92212.75;;;6.57;100.00
33859;BME280;20156;47.486;12.074;2023-04-21T03:33:56;92204.19;;;6.51;100.00
33859;BME280;20156;47.486;12.074;2023-04-21T03:36:21;92190.25;;;6.52;100.00
33859;BME280;20156;47.486;12.074;2023-04-21T03:38:47;92178.13;;;6.53;100.00
33859;BME280;20156;47.486;12.074;2023-04-21T03:41:12;92151.78;;;6.51;100.00
33859;BME280;20156;47.486;12.074;2023-04-21T03:43:37;92121.09;;;6.59;100.00
33859;BME280;20156;47.486;12.074;2023-04-21T03:46:03;92097.06;;;6.64;100.00
33859;BME280;20156;47.486;12.074;2023-04-21T03:48:28;92080.81;;;6.63;100.00
33859;BME280;20156;47.486;12.074;2023-04-21T03:50:54;92073.31;;;6.62;100.00
33859;BME280;20156;47.486;12.074;2023-04-21T03:53:19;92067.63;;;6.45;100.00
33859;BME280;20156;47.486;12.074;2023-04-21T03:55:45;92051.59;;;6.48;100.00
33859;BME280;20156;47.486;12.074;2023-04-21T03:58:14;92030.72;;;6.59;100.00
33859;BME280;20156;47.486;12.074;2023-04-21T04:00:40;92021.91;;;6.66;100.00
33859;BME280;20156;47.486;12.074;2023-04-21T04:03:05;92022.97;;;6.64;100.00
33859;BME280;20156;47.486;12.074;2023-04-21T04:05:31;92025.53;;;6.64;100.00
33859;BME280;20156;47.486;12.074;2023-04-21T04:07:57;92036.91;;;6.63;100.00
33859;BME280;20156;47.486;12.074;2023-04-21T04:10:22;92045.16;;;6.60;100.00
33859;BME280;20156;47.486;12.074;2023-04-21T04:12:48;92048.25;;;6.62;100.00
33859;BME280;20156;47.486;12.074;2023-04-21T04:15:13;92061.69;;;6.64;100.00
33859;BME280;20156;47.486;12.074;2023-04-21T04:17:39;92082.59;;;6.63;100.00
33859;BME280;20156;47.486;12.074;2023-04-21T04:20:06;92100.94;;;6.56;100.00
33859;BME280;20156;47.486;12.074;2023-04-21T04:22:32;92110.50;;;6.61;100.00
33859;BME280;20156;47.486;12.074;2023-04-21T04:24:58;92119.25;;;6.50;100.00
33859;BME280;20156;47.486;12.074;2023-04-21T04:27:28;92112.28;;;6.45;100.00
33859;BME280;20156;47.486;12.074;2023-04-21T04:29:54;92099.38;;;6.50;100.00
33859;BME280;20156;47.486;12.074;2023-04-21T04:32:19;92082.84;;;6.51;100.00
33859;BME280;20156;47.486;12.074;2023-04-21T04:34:45;92068.41;;;6.60;100.00
33859;BME280;20156;47.486;12.074;2023-04-21T04:37:11;92059.63;;;6.61;100.00
33859;BME280;20156;47.486;12.074;2023-04-21T04:39:37;92049.03;;;6.68;100.00
33859;BME280;20156;47.486;12.074;2023-04-21T04:42:05;92048.50;;;6.71;100.00
33859;BME280;20156;47.486;12.074;2023-04-21T04:44:32;92052.41;;;6.74;100.00
33859;BME280;20156;47.486;12.074;2023-04-21T04:46:58;92037.41;;;6.81;100.00
33859;BME280;20156;47.486;12.074;2023-04-21T04:49:23;92037.69;;;6.89;100.00
33859;BME280;20156;47.486;12.074;2023-04-21T04:51:50;92052.66;;;6.87;100.00
33859;BME280;20156;47.486;12.074;2023-04-21T04:54:15;92082.09;;;6.81;100.00
33859;BME280;20156;47.486;12.074;2023-04-21T04:56:41;92091.41;;;6.87;100.00
33859;BME280;20156;47.486;12.074;2023-04-21T04:59:06;92103.53;;;6.87;100.00
33859;BME280;20156;47.486;12.074;2023-04-21T05:01:32;92122.16;;;6.99;100.00
33859;BME280;20156;47.486;12.074;2023-04-21T05:03:57;92129.91;;;7.09;100.00
33859;BME280;20156;47.486;12.074;2023-04-21T05:06:23;92149.03;;;7.18;100.00
33859;BME280;20156;47.486;12.074;2023-04-21T05:08:49;92169.44;;;7.20;100.00
33859;BME280;20156;47.486;12.074;2023-04-21T05:11:14;92193.00;;;7.29;100.00
33859;BME280;20156;47.486;12.074;2023-04-21T05:13:40;92223.50;;;7.27;100.00
33859;BME280;20156;47.486;12.074;2023-04-21T05:16:06;92234.34;;;7.29;100.00
33859;BME280;20156;47.486;12.074;2023-04-21T05:18:31;92236.69;;;7.35;100.00
33859;BME280;20156;47.486;12.074;2023-04-21T05:20:56;92260.22;;;7.34;100.00
33859;BME280;20156;47.486;12.074;2023-04-21T05:23:22;92272.38;;;7.43;100.00
33859;BME280;20156;47.486;12.074;2023-04-21T05:25:48;92284.78;;;7.51;100.00
33859;BME280;20156;47.486;12.074;2023-04-21T05:28:13;92319.47;;;7.61;100.00
33859;BME280;20156;47.486;12.074;2023-04-21T05:30:40;92348.72;;;7.66;100.00
33859;BME280;20156;47.486;12.074;2023-04-21T05:33:05;92366.28;;;7.69;100.00
33859;BME280;20156;47.486;12.074;2023-04-21T05:35:31;92388.06;;;7.78;100.00
33859;BME280;20156;47.486;12.074;2023-04-21T05:37:56;92417.31;;;7.84;100.00
33859;BME280;20156;47.486;12.074;2023-04-21T05:40:21;92443.97;;;7.84;100.00
33859;BME280;20156;47.486;12.074;2023-04-21T05:42:47;92463.09;;;7.83;100.00
33859;BME280;20156;47.486;12.074;2023-04-21T05:45:12;92462.59;;;7.87;100.00
33859;BME280;20156;47.486;12.074;2023-04-21T05:47:38;92452.25;;;7.87;100.00
33859;BME280;20156;47.486;12.074;2023-04-21T05:50:04;92458.47;;;7.91;100.00
33859;BME280;20156;47.486;12.074;2023-04-21T05:52:30;92459.00;;;8.03;100.00
33859;BME280;20156;47.486;12.074;2023-04-21T05:54:57;92519.78;;;7.85;100.00
33859;BME280;20156;47.486;12.074;2023-04-21T05:57:23;92554.72;;;7.82;100.00
33859;BME280;20156;47.486;12.074;2023-04-21T05:59:49;92551.94;;;8.04;100.00
33859;BME280;20156;47.486;12.074;2023-04-21T06:02:14;92560.22;;;7.96;100.00
33859;BME280;20156;47.486;12.074;2023-04-21T06:04:40;92577.81;;;8.04;100.00
33859;BME280;20156;47.486;12.074;2023-04-21T06:07:09;92591.34;;;8.17;100.00
33859;BME280;20156;47.486;12.074;2023-04-21T06:09:38;92602.00;;;8.25;100.00
33859;BME280;20156;47.486;12.074;2023-04-21T06:12:04;92625.63;;;8.39;100.00
33859;BME280;20156;47.486;12.074;2023-04-21T06:14:30;92651.31;;;8.40;100.00
33859;BME280;20156;47.486;12.074;2023-04-21T06:16:55;92678.78;;;8.47;100.00
33859;BME280;20156;47.486;12.074;2023-04-21T06:19:20;92716.75;;;8.31;100.00
33859;BME280;20156;47.486;12.074;2023-04-21T06:21:46;92714.53;;;8.50;100.00
33859;BME280;20156;47.486;12.074;2023-04-21T06:24:11;92740.44;;;8.50;100.00
33859;BME280;20156;47.486;12.074;2023-04-21T06:26:37;92752.69;;;8.59;100.00
33859;BME280;20156;47.486;12.074;2023-04-21T06:29:02;92790.53;;;8.65;100.00
33859;BME280;20156;47.486;12.074;2023-04-21T06:31:27;92817.53;;;8.74;100.00
33859;BME280;20156;47.486;12.074;2023-04-21T06:33:53;92854.41;;;8.87;100.00
33859;BME280;20156;47.486;12.074;2023-04-21T06:36:18;92884.78;;;8.96;100.00
33859;BME280;20156;47.486;12.074;2023-04-21T06:38:46;92915.88;;;8.91;100.00
33859;BME280;20156;47.486;12.074;2023-04-21T06:41:11;92935.38;;;9.04;100.00
33859;BME280;20156;47.486;12.074;2023-04-21T06:43:36;92960.34;;;9.10;100.00
33859;BME280;20156;47.486;12.074;2023-04-21T06:46:02;92966.06;;;9.12;100.00
33859;BME280;20156;47.486;12.074;2023-04-21T06:48:27;92965.38;;;9.27;100.00
33859;BME280;20156;47.486;12.074;2023-04-21T06:50:54;92996.59;;;9.42;100.00
33859;BME280;20156;47.486;12.074;2023-04-21T06:53:19;93046.34;;;9.34;100.00
33859;BME280;20156;47.486;12.074;2023-04-21T06:55:46;93097.22;;;9.35;100.00
33859;BME280;20156;47.486;12.074;2023-04-21T06:58:12;93099.28;;;9.33;100.00
33859;BME280;20156;47.486;12.074;2023-04-21T07:00:37;93098.84;;;9.46;100.00
33859;BME280;20156;47.486;12.074;2023-04-21T07:03:03;93127.13;;;9.43;100.00
33859;BME280;20156;47.486;12.074;2023-04-21T07:05:28;93175.97;;;9.51;100.00
33859;BME280;20156;47.486;12.074;2023-04-21T07:07:53;93193.44;;;9.60;100.00
33859;BME280;20156;47.486;12.074;2023-04-21T07:10:26;93246.63;;;9.58;100.00
33859;BME280;20156;47.486;12.074;2023-04-21T07:12:52;93271.34;;;9.65;100.00
33859;BME280;20156;47.486;12.074;2023-04-21T07:15:18;93281.88;;;9.81;100.00
33859;BME280;20156;47.486;12.074;2023-04-21T07:17:43;93321.94;;;9.90;100.00
33859;BME280;20156;47.486;12.074;2023-04-21T07:20:09;93355.38;;;9.81;100.00
33859;BME280;20156;47.486;12.074;2023-04-21T07:22:34;93357.97;;;9.81;100.00
33859;BME280;20156;47.486;12.074;2023-04-21T07:25:01;93352.41;;;9.94;100.00
33859;BME280;20156;47.486;12.074;2023-04-21T07:27:31;93379.31;;;10.10;100.00
33859;BME280;20156;47.486;12.074;2023-04-21T07:29:56;93400.25;;;10.26;100.00
33859;BME280;20156;47.486;12.074;2023-04-21T07:32:21;93434.44;;;10.17;100.00
33859;BME280;20156;47.486;12.074;2023-04-21T07:34:47;93475.22;;;10.17;100.00
33859;BME280;20156;47.486;12.074;2023-04-21T07:37:12;93542.78;;;10.17;100.00
33859;BME280;20156;47.486;12.074;2023-04-21T07:39:38;93559.41;;;10.38;100.00
33859;BME280;20156;47.486;12.074;2023-04-21T07:42:03;93604.50;;;10.70;100.00
33859;BME280;20156;47.486;12.074;2023-04-21T07:44:32;93684.88;;;11.15;100.00
33859;BME280;20156;47.486;12.074;2023-04-21T07:46:58;93780.81;;;11.29;100.00
33859;BME280;20156;47.486;12.074;2023-04-21T07:49:23;93850.25;;;11.45;100.00
33859;BME280;20156;47.486;12.074;2023-04-21T07:51:48;93901.88;;;11.31;100.00
33859;BME280;20156;47.486;12.074;2023-04-21T07:54:14;93935.00;;;11.36;100.00
33859;BME280;20156;47.486;12.074;2023-04-21T07:56:39;93981.47;;;11.99;100.00
33859;BME280;20156;47.486;12.074;2023-04-21T07:59:05;94015.75;;;11.91;100.00
33859;BME280;20156;47.486;12.074;2023-04-21T08:01:30;94006.00;;;12.03;100.00
33859;BME280;20156;47.486;12.074;2023-04-21T08:03:55;93994.25;;;12.45;100.00
33859;BME280;20156;47.486;12.074;2023-04-21T08:06:21;94053.81;;;12.31;100.00
33859;BME280;20156;47.486;12.074;2023-04-21T08:08:46;94019.81;;;12.26;100.00
33859;BME280;20156;47.486;12.074;2023-04-21T08:11:12;94051.53;;;11.96;100.00
33859;BME280;20156;47.486;12.074;2023-04-21T08:13:37;94052.88;;;12.20;100.00
33859;BME280;20156;47.486;12.074;2023-04-21T08:16:03;94074.22;;;12.17;100.00
33859;BME280;20156;47.486;12.074;2023-04-21T08:18:29;94072.38;;;11.96;100.00
33859;BME280;20156;47.486;12.074;2023-04-21T08:20:55;94029.91;;;12.17;100.00
33859;BME280;20156;47.486;12.074;2023-04-21T08:23:22;94092.41;;;12.12;100.00
33859;BME280;20156;47.486;12.074;2023-04-21T08:25:47;94095.78;;;12.29;100.00
33859;BME280;20156;47.486;12.074;2023-04-21T08:28:12;94119.25;;;12.29;100.00
33859;BME280;20156;47.486;12.074;2023-04-21T08:30:40;94144.69;;;12.22;100.00
33859;BME280;20156;47.486;12.074;2023-04-21T08:33:06;94134.31;;;12.44;100.00
33859;BME280;20156;47.486;12.074;2023-04-21T08:35:33;94162.47;;;12.64;100.00
33859;BME280;20156;47.486;12.074;2023-04-21T08:37:58;94157.78;;;12.66;100.00
33859;BME280;20156;47.486;12.074;2023-04-21T08:40:32;94145.91;;;12.97;100.00
33859;BME280;20156;47.486;12.074;2023-04-21T08:42:58;94184.91;;;12.65;100.00
33859;BME280;20156;47.486;12.074;2023-04-21T08:45:24;94155.44;;;12.64;100.00
33859;BME280;20156;47.486;12.074;2023-04-21T08:47:50;94192.75;;;12.87;100.00
33859;BME280;20156;47.486;12.074;2023-04-21T08:50:16;94147.72;;;13.45;100.00
33859;BME280;20156;47.486;12.074;2023-04-21T08:52:41;94203.91;;;13.75;100.00
33859;BME280;20156;47.486;12.074;2023-04-21T08:55:08;94220.06;;;13.67;100.00
33859;BME280;20156;47.486;12.074;2023-04-21T08:57:34;94287.50;;;13.70;100.00
33859;BME280;20156;47.486;12.074;2023-04-21T08:59:59;94324.47;;;13.57;100.00
33859;BME280;20156;47.486;12.074;2023-04-21T09:02:25;94343.75;;;13.72;100.00
33859;BME280;20156;47.486;12.074;2023-04-21T09:04:50;94371.84;;;13.82;100.00
33859;BME280;20156;47.486;12.074;2023-04-21T09:07:43;94438.22;;;13.42;100.00
33859;BME280;20156;47.486;12.074;2023-04-21T09:10:09;94408.13;;;13.78;100.00
33859;BME280;20156;47.486;12.074;2023-04-21T09:12:37;94382.88;;;14.38;100.00
33859;BME280;20156;47.486;12.074;2023-04-21T09:15:04;94453.81;;;14.14;100.00
33859;BME280;20156;47.486;12.074;2023-04-21T09:17:30;94480.63;;;14.27;100.00
33859;BME280;20156;47.486;12.074;2023-04-21T09:20:11;94485.78;;;14.22;100.00
33859;BME280;20156;47.486;12.074;2023-04-21T09:22:37;94468.75;;;14.19;100.00
33859;BME280;20156;47.486;12.074;2023-04-21T09:25:03;94507.81;;;14.26;100.00
33859;BME280;20156;47.486;12.074;2023-04-21T09:27:28;94521.78;;;14.31;100.00
33859;BME280;20156;47.486;12.074;2023-04-21T09:29:54;94532.69;;;14.67;100.00
33859;BME280;20156;47.486;12.074;2023-04-21T09:32:19;94580.38;;;14.30;100.00
33859;BME280;20156;47.486;12.074;2023-04-21T09:34:45;94548.50;;;14.55;100.00
33859;BME280;20156;47.486;12.074;2023-04-21T09:37:12;94565.44;;;14.69;100.00
33859;BME280;20156;47.486;12.074;2023-04-21T09:40:04;94601.84;;;14.49;100.00
33859;BME280;20156;47.486;12.074;2023-04-21T09:42:31;94614.78;;;14.61;100.00
33859;BME280;20156;47.486;12.074;2023-04-21T09:44:56;94620.75;;;15.22;100.00
33859;BME280;20156;47.486;12.074;2023-04-21T09:47:22;94647.44;;;15.19;100.00
33859;BME280;20156;47.486;12.074;2023-04-21T09:49:51;94668.19;;;14.98;100.00
33859;BME280;20156;47.486;12.074;2023-04-21T09:52:20;94658.72;;;15.19;100.00
33859;BME280;20156;47.486;12.074;2023-04-21T09:54:51;94658.97;;;15.45;100.00
33859;BME280;20156;47.486;12.074;2023-04-21T09:57:21;94656.53;;;15.60;100.00
33859;BME280;20156;47.486;12.074;2023-04-21T09:59:53;94728.19;;;16.19;100.00
33859;BME280;20156;47.486;12.074;2023-04-21T10:02:23;94797.72;;;16.17;100.00
33859;BME280;20156;47.486;12.074;2023-04-21T10:04:49;94810.13;;;16.00;100.00
33859;BME280;20156;47.486;12.074;2023-04-21T10:07:15;94814.28;;;16.22;100.00
33859;BME280;20156;47.486;12.074;2023-04-21T10:09:51;94818.16;;;16.69;100.00
33859;BME280;20156;47.486;12.074;2023-04-21T10:12:20;94817.13;;;16.75;100.00
33859;BME280;20156;47.486;12.074;2023-04-21T10:14:53;94813.41;;;17.03;100.00
33859;BME280;20156;47.486;12.074;2023-04-21T10:17:22;94797.50;;;17.30;100.00
33859;BME280;20156;47.486;12.074;2023-04-21T10:19:57;94784.22;;;17.04;100.00
33859;BME280;20156;47.486;12.074;2023-04-21T10:22:30;94770.91;;;17.21;100.00
33859;BME280;20156;47.486;12.074;2023-04-21T10:24:57;94761.22;;;17.94;100.00
33859;BME280;20156;47.486;12.074;2023-04-21T10:27:36;94738.59;;;18.14;100.00
33859;BME280;20156;47.486;12.074;2023-04-21T10:30:22;94729.59;;;17.69;100.00
33859;BME280;20156;47.486;12.074;2023-04-21T10:32:48;94708.16;;;17.35;100.00
33859;BME280;20156;47.486;12.074;2023-04-21T10:38:40;94735.75;;;18.51;100.00
33859;BME280;20156;47.486;12.074;2023-04-21T10:41:24;94720.97;;;18.45;100.00
33859;BME280;20156;47.486;12.074;2023-04-21T10:43:51;94691.75;;;18.06;100.00
33859;BME280;20156;47.486;12.074;2023-04-21T10:46:34;94685.38;;;18.83;100.00
33859;BME280;20156;47.486;12.074;2023-04-21T10:49:11;94649.22;;;18.99;100.00
33859;BME280;20156;47.486;12.074;2023-04-21T10:54:29;94573.75;;;18.38;100.00
33859;BME280;20156;47.486;12.074;2023-04-21T10:57:01;94590.31;;;19.13;100.00
33859;BME280;20156;47.486;12.074;2023-04-21T10:59:29;94606.84;;;19.34;100.00
33859;BME280;20156;47.486;12.074;2023-04-21T11:01:56;94563.75;;;19.54;100.00
33859;BME280;20156;47.486;12.074;2023-04-21T11:04:21;94524.44;;;19.81;100.00
33859;BME280;20156;47.486;12.074;2023-04-21T11:07:10;94512.28;;;19.51;100.00
33859;BME280;20156;47.486;12.074;2023-04-21T11:09:37;94540.13;;;20.02;100.00
33859;BME280;20156;47.486;12.074;2023-04-21T11:12:05;94491.94;;;19.57;100.00
33859;BME280;20156;47.486;12.074;2023-04-21T11:14:32;94540.50;;;20.14;100.00
33859;BME280;20156;47.486;12.074;2023-04-21T11:16:58;94540.81;;;20.36;100.00
33859;BME280;20156;47.486;12.074;2023-04-21T11:19:23;94543.44;;;20.12;100.00
33859;BME280;20156;47.486;12.074;2023-04-21T11:21:51;94524.03;;;19.98;100.00
33859;BME280;20156;47.486;12.074;2023-04-21T11:24:21;94502.91;;;19.69;100.00
33859;BME280;20156;47.486;12.074;2023-04-21T11:26:47;94514.06;;;19.90;100.00
33859;BME280;20156;47.486;12.074;2023-04-21T11:29:13;94471.28;;;19.64;100.00
33859;BME280;20156;47.486;12.074;2023-04-21T11:31:41;94462.34;;;19.89;100.00
33859;BME280;20156;47.486;12.074;2023-04-21T11:34:08;94457.97;;;20.51;100.00
33859;BME280;20156;47.486;12.074;2023-04-21T11:36:34;94408.38;;;19.42;100.00
33859;BME280;20156;47.486;12.074;2023-04-21T11:39:08;94418.63;;;20.02;100.00
33859;BME280;20156;47.486;12.074;2023-04-21T11:41:35;94385.53;;;20.09;100.00
33859;BME280;20156;47.486;12.074;2023-04-21T11:44:01;94409.91;;;20.68;100.00
33859;BME280;20156;47.486;12.074;2023-04-21T11:46:27;94364.03;;;20.59;100.00
33859;BME280;20156;47.486;12.074;2023-04-21T11:49:03;94424.06;;;21.10;100.00
33859;BME280;20156;47.486;12.074;2023-04-21T11:51:37;94375.75;;;21.04;100.00
33859;BME280;20156;47.486;12.074;2023-04-21T11:54:10;94382.56;;;21.56;100.00
33859;BME280;20156;47.486;12.074;2023-04-21T11:59:08;94328.41;;;20.89;100.00
33859;BME280;20156;47.486;12.074;2023-04-21T12:01:41;94332.56;;;20.76;100.00
33859;BME280;20156;47.486;12.074;2023-04-21T12:04:15;94325.72;;;19.76;100.00
33859;BME280;20156;47.486;12.074;2023-04-21T12:06:41;94350.34;;;19.42;100.00
33859;BME280;20156;47.486;12.074;2023-04-21T12:09:07;94349.19;;;19.77;100.00
33859;BME280;20156;47.486;12.074;2023-04-21T12:11:33;94326.50;;;20.19;100.00
33859;BME280;20156;47.486;12.074;2023-04-21T12:13:59;94313.94;;;20.49;100.00
33859;BME280;20156;47.486;12.074;2023-04-21T12:16:26;94287.84;;;20.93;100.00
33859;BME280;20156;47.486;12.074;2023-04-21T12:18:52;94286.38;;;20.36;100.00
33859;BME280;20156;47.486;12.074;2023-04-21T12:21:18;94291.34;;;19.81;100.00
33859;BME280;20156;47.486;12.074;2023-04-21T12:23:44;94298.72;;;19.60;100.00
33859;BME280;20156;47.486;12.074;2023-04-21T12:26:10;94281.72;;;18.94;100.00
33859;BME280;20156;47.486;12.074;2023-04-21T12:28:37;94315.09;;;18.75;100.00
33859;BME280;20156;47.486;12.074;2023-04-21T12:31:02;94304.03;;;18.73;100.00
33859;BME280;20156;47.486;12.074;2023-04-21T12:33:28;94338.22;;;18.44;100.00
33859;BME280;20156;47.486;12.074;2023-04-21T12:35:53;94307.63;;;18.87;100.00
33859;BME280;20156;47.486;12.074;2023-04-21T12:38:18;94318.59;;;19.52;100.00
33859;BME280;20156;47.486;12.074;2023-04-21T12:40:44;94335.94;;;20.63;100.00
33859;BME280;20156;47.486;12.074;2023-04-21T12:43:09;94299.09;;;21.31;100.00
33859;BME280;20156;47.486;12.074;2023-04-21T12:45:35;94289.31;;;21.73;100.00
33859;BME280;20156;47.486;12.074;2023-04-21T12:48:00;94293.41;;;21.93;100.00
33859;BME280;20156;47.486;12.074;2023-04-21T12:50:27;94291.28;;;21.54;100.00
33859;BME280;20156;47.486;12.074;2023-04-21T12:52:53;94296.28;;;20.63;100.00